createdAt,value
2019-01-24T00:01:08.685Z,-2.60
2019-01-24T00:03:38.069Z,-2.50
2019-01-24T00:06:07.395Z,-2.50
2019-01-24T00:08:36.777Z,-2.50
2019-01-24T00:11:06.093Z,-2.50
2019-01-24T00:13:35.477Z,-2.60
2019-01-24T00:16:05.307Z,-2.60
2019-01-24T00:18:34.689Z,-2.60
2019-01-24T00:21:04.071Z,-2.60
2019-01-24T00:23:33.478Z,-2.60
2019-01-24T00:26:02.874Z,-2.50
2019-01-24T00:28:32.220Z,-2.60
2019-01-24T00:31:03.092Z,-2.60
2019-01-24T00:33:32.481Z,-2.50
2019-01-24T00:36:02.885Z,-2.50
2019-01-24T00:38:32.203Z,-2.60
2019-01-24T00:41:01.635Z,-2.60
2019-01-24T00:43:30.974Z,-2.60
2019-01-24T00:46:00.329Z,-2.60
2019-01-24T00:48:29.737Z,-2.60
2019-01-24T00:50:59.138Z,-2.60
2019-01-24T00:53:28.558Z,-2.60
2019-01-24T00:55:57.947Z,-2.50
2019-01-24T00:58:27.371Z,-2.50
2019-01-24T01:00:56.709Z,-2.50
2019-01-24T01:03:26.171Z,-2.50
2019-01-24T01:05:55.499Z,-2.60
2019-01-24T01:08:24.942Z,-2.60
2019-01-24T01:10:54.355Z,-2.60
2019-01-24T01:13:23.805Z,-2.60
2019-01-24T01:15:53.162Z,-2.50
2019-01-24T01:18:22.633Z,-2.50
2019-01-24T01:20:52.022Z,-2.60
2019-01-24T01:23:21.365Z,-2.60
2019-01-24T01:25:50.757Z,-2.60
2019-01-24T01:28:20.125Z,-2.60
2019-01-24T01:30:49.607Z,-2.50
2019-01-24T01:33:18.941Z,-2.60
2019-01-24T01:35:48.349Z,-2.50
2019-01-24T01:38:17.734Z,-2.50
2019-01-24T01:40:47.101Z,-2.50
2019-01-24T01:43:16.447Z,-2.50
2019-01-24T01:45:45.830Z,-2.50
2019-01-24T01:48:15.172Z,-2.50
2019-01-24T01:50:44.625Z,-2.50
2019-01-24T01:53:14.041Z,-2.50
2019-01-24T01:55:43.492Z,-2.50
2019-01-24T01:58:12.850Z,-2.50
2019-01-24T02:00:42.526Z,-2.50
2019-01-24T02:03:11.974Z,-2.50
2019-01-24T02:05:41.421Z,-2.60
2019-01-24T02:08:11.025Z,-2.60
2019-01-24T02:10:40.457Z,-2.60
2019-01-24T02:13:10.020Z,-2.60
2019-01-24T02:15:39.453Z,-2.60
2019-01-24T02:18:08.989Z,-2.60
2019-01-24T02:20:38.325Z,-2.60
2019-01-24T02:23:07.719Z,-2.60
2019-01-24T02:25:37.086Z,-2.60
2019-01-24T02:28:06.523Z,-2.60
2019-01-24T02:30:36.011Z,-2.60
2019-01-24T02:33:05.335Z,-2.60
2019-01-24T02:35:34.712Z,-2.50
2019-01-24T02:38:04.054Z,-2.50
2019-01-24T02:40:33.438Z,-2.50
2019-01-24T02:43:02.816Z,-2.60
2019-01-24T02:45:32.197Z,-2.60
2019-01-24T02:48:01.532Z,-2.60
2019-01-24T02:50:30.905Z,-2.60
2019-01-24T02:53:00.304Z,-2.60
2019-01-24T02:55:31.299Z,-2.60
2019-01-24T02:58:00.706Z,-2.60
2019-01-24T03:00:30.081Z,-2.60
2019-01-24T03:02:59.399Z,-2.60
2019-01-24T03:05:28.834Z,-2.50
2019-01-24T03:07:58.148Z,-2.50
2019-01-24T03:10:28.473Z,-2.50
2019-01-24T03:12:57.803Z,-2.50
2019-01-24T03:15:27.194Z,-2.50
2019-01-24T03:17:56.585Z,-2.50
2019-01-24T03:20:25.906Z,-2.50
2019-01-24T03:22:55.268Z,-2.50
2019-01-24T03:25:24.600Z,-2.60
2019-01-24T03:27:54.011Z,-2.60
2019-01-24T03:30:23.492Z,-2.60
2019-01-24T03:32:52.887Z,-2.60
2019-01-24T03:35:26.974Z,-2.60
2019-01-24T03:37:56.353Z,-2.60
2019-01-24T03:40:25.741Z,-2.60
2019-01-24T03:42:55.170Z,-2.60
2019-01-24T03:45:24.510Z,-2.60
2019-01-24T03:47:53.955Z,-2.60
2019-01-24T03:50:23.744Z,-2.60
2019-01-24T03:52:53.178Z,-2.60
2019-01-24T03:55:23.099Z,-2.70
2019-01-24T03:57:52.550Z,-2.60
2019-01-24T04:00:23.571Z,-2.60
2019-01-24T04:02:54.567Z,-2.60
2019-01-24T04:05:24.112Z,-2.60
2019-01-24T04:07:53.527Z,-2.60
2019-01-24T04:10:23.263Z,-2.60
2019-01-24T04:12:52.778Z,-2.60
2019-01-24T04:15:24.225Z,-2.60
2019-01-24T04:17:53.734Z,-2.60
2019-01-24T04:20:23.090Z,-2.60
2019-01-24T04:22:52.404Z,-2.60
2019-01-24T04:25:21.778Z,-2.60
2019-01-24T04:27:51.298Z,-2.60
2019-01-24T04:30:22.720Z,-2.60
2019-01-24T04:32:52.120Z,-2.60
2019-01-24T04:35:21.766Z,-2.60
2019-01-24T04:37:51.222Z,-2.60
2019-01-24T04:40:21.189Z,-2.50
2019-01-24T04:42:50.664Z,-2.60
2019-01-24T04:45:20.070Z,-2.50
2019-01-24T04:47:49.447Z,-2.50
2019-01-24T04:50:19.101Z,-2.50
2019-01-24T04:52:48.509Z,-2.50
2019-01-24T04:55:19.581Z,-2.50
2019-01-24T04:57:49.626Z,-2.50
2019-01-24T05:00:21.469Z,-2.50
2019-01-24T05:02:50.953Z,-2.50
2019-01-24T05:05:27.212Z,-2.50
2019-01-24T05:07:51.436Z,-2.50
2019-01-24T05:10:20.785Z,-2.50
2019-01-24T05:12:50.102Z,-2.50
2019-01-24T05:15:19.571Z,-2.50
2019-01-24T05:17:48.984Z,-2.50
2019-01-24T05:20:18.347Z,-2.50
2019-01-24T05:22:47.671Z,-2.50
2019-01-24T05:25:17.945Z,-2.50
2019-01-24T05:27:47.303Z,-2.50
2019-01-24T05:30:22.994Z,-2.50
2019-01-24T05:32:52.333Z,-2.40
2019-01-24T05:35:21.799Z,-2.40
2019-01-24T05:37:51.195Z,-2.40
2019-01-24T05:40:20.594Z,-2.40
2019-01-24T05:42:50.076Z,-2.40
2019-01-24T05:45:19.391Z,-2.40
2019-01-24T05:47:48.756Z,-2.40
2019-01-24T05:50:18.172Z,-2.40
2019-01-24T05:52:47.578Z,-2.40
2019-01-24T05:55:16.899Z,-2.40
2019-01-24T05:57:46.252Z,-2.40
2019-01-24T06:00:22.324Z,-2.40
2019-01-24T06:02:51.730Z,-2.40
2019-01-24T06:05:21.189Z,-2.40
2019-01-24T06:07:50.723Z,-2.40
2019-01-24T06:10:20.190Z,-2.40
2019-01-24T06:12:49.684Z,-2.40
2019-01-24T06:15:19.420Z,-2.40
2019-01-24T06:17:49.074Z,-2.40
2019-01-24T06:20:18.663Z,-2.40
2019-01-24T06:22:48.099Z,-2.40
2019-01-24T06:25:17.679Z,-2.40
2019-01-24T06:27:47.164Z,-2.40
2019-01-24T06:30:20.559Z,-2.50
2019-01-24T06:32:50.071Z,-2.40
2019-01-24T06:35:19.588Z,-2.50
2019-01-24T06:37:49.076Z,-2.40
2019-01-24T06:40:18.596Z,-2.50
2019-01-24T06:42:48.098Z,-2.50
2019-01-24T06:45:22.056Z,-2.50
2019-01-24T06:47:52.685Z,-2.50
2019-01-24T06:50:22.170Z,-2.50
2019-01-24T06:52:51.683Z,-2.40
2019-01-24T06:55:28.714Z,-2.40
2019-01-24T06:57:58.144Z,-2.50
2019-01-24T07:00:27.677Z,-2.40
2019-01-24T07:02:57.198Z,-2.40
2019-01-24T07:05:26.664Z,-2.50
2019-01-24T07:07:56.137Z,-2.40
2019-01-24T07:10:25.955Z,-2.40
2019-01-24T07:12:55.467Z,-2.40
2019-01-24T07:15:25.076Z,-2.40
2019-01-24T07:17:54.652Z,-2.40
2019-01-24T07:20:24.056Z,-2.40
2019-01-24T07:22:53.556Z,-2.40
2019-01-24T07:25:24.952Z,-2.40
2019-01-24T07:27:54.443Z,-2.40
2019-01-24T07:30:24.120Z,-2.40
2019-01-24T07:32:53.799Z,-2.40
2019-01-24T07:35:23.235Z,-2.40
2019-01-24T07:37:52.812Z,-2.40
2019-01-24T07:40:22.360Z,-2.40
2019-01-24T07:42:51.902Z,-2.40
2019-01-24T07:45:29.814Z,-2.30
2019-01-24T07:47:59.543Z,-2.30
2019-01-24T07:50:28.932Z,-2.30
2019-01-24T07:52:58.410Z,-2.30
2019-01-24T07:55:27.758Z,-2.30
2019-01-24T07:57:57.129Z,-2.30
2019-01-24T08:00:27.138Z,-2.30
2019-01-24T08:02:56.804Z,-2.40
2019-01-24T08:05:26.842Z,-2.30
2019-01-24T08:07:56.471Z,-2.30
2019-01-24T08:10:26.062Z,-2.40
2019-01-24T08:12:55.543Z,-2.30
2019-01-24T08:15:25.037Z,-2.30
2019-01-24T08:17:54.457Z,-2.30
2019-01-24T08:20:25.918Z,-2.30
2019-01-24T08:22:55.345Z,-2.30
2019-01-24T08:25:24.996Z,-2.30
2019-01-24T08:27:54.504Z,-2.30
2019-01-24T08:30:34.125Z,-2.30
2019-01-24T08:33:03.688Z,-2.20
2019-01-24T08:35:33.204Z,-2.20
2019-01-24T08:38:02.696Z,-2.20
2019-01-24T08:40:32.206Z,-2.20
2019-01-24T08:43:01.654Z,-2.20
2019-01-24T08:45:31.174Z,-2.20
2019-01-24T08:48:00.666Z,-2.10
2019-01-24T08:50:30.391Z,-2.10
2019-01-24T08:52:59.884Z,-2.00
2019-01-24T08:55:37.781Z,-2.10
2019-01-24T08:58:08.251Z,-2.00
2019-01-24T09:00:37.905Z,-2.00
2019-01-24T09:03:07.375Z,-2.00
2019-01-24T09:05:36.896Z,-2.00
2019-01-24T09:08:06.760Z,-2.00
2019-01-24T09:10:38.423Z,-2.00
2019-01-24T09:13:08.785Z,-2.00
2019-01-24T09:15:38.960Z,-2.00
2019-01-24T09:18:09.470Z,-2.00
2019-01-24T09:20:39.016Z,-2.10
2019-01-24T09:23:09.147Z,-2.10
2019-01-24T09:25:38.907Z,-2.10
2019-01-24T09:28:14.616Z,-2.10
2019-01-24T09:30:39.499Z,-2.10
2019-01-24T09:33:09.083Z,-2.20
2019-01-24T09:35:38.744Z,-2.20
2019-01-24T09:38:08.207Z,-2.10
2019-01-24T09:40:37.668Z,-2.10
2019-01-24T09:43:07.149Z,-2.10
2019-01-24T09:45:36.787Z,-2.20
2019-01-24T09:48:07.960Z,-2.20
2019-01-24T09:50:37.427Z,-2.20
2019-01-24T09:53:06.981Z,-2.10
2019-01-24T09:55:36.429Z,-2.20
2019-01-24T09:58:06.074Z,-2.30
2019-01-24T10:00:37.067Z,-2.30
2019-01-24T10:03:07.507Z,-2.30
2019-01-24T10:05:37.165Z,-2.30
2019-01-24T10:08:07.807Z,-2.20
2019-01-24T10:10:37.305Z,-2.20
2019-01-24T10:13:07.061Z,-2.20
2019-01-24T10:15:36.620Z,-2.20
2019-01-24T10:18:06.273Z,-2.20
2019-01-24T10:20:37.559Z,-2.20
2019-01-24T10:23:07.020Z,-2.20
2019-01-24T10:25:38.417Z,-2.30
2019-01-24T10:28:08.687Z,-2.20
2019-01-24T10:30:42.742Z,-2.20
2019-01-24T10:33:09.329Z,-2.20
2019-01-24T10:35:38.738Z,-2.20
2019-01-24T10:38:08.074Z,-2.20
2019-01-24T10:40:37.469Z,-2.20
2019-01-24T10:43:06.855Z,-2.20
2019-01-24T10:45:36.797Z,-2.20
2019-01-24T10:48:08.347Z,-2.20
2019-01-24T10:50:37.833Z,-2.20
2019-01-24T10:53:07.229Z,-2.10
2019-01-24T10:55:36.614Z,-2.10
2019-01-24T10:58:07.169Z,-2.10
2019-01-24T11:00:45.742Z,-2.10
2019-01-24T11:03:17.219Z,-2.10
2019-01-24T11:05:46.649Z,-2.10
2019-01-24T11:08:16.432Z,-2.10
2019-01-24T11:10:45.853Z,-2.10
2019-01-24T11:13:15.530Z,-2.10
2019-01-24T11:15:44.891Z,-2.10
2019-01-24T11:18:14.342Z,-2.10
2019-01-24T11:20:43.797Z,-2.10
2019-01-24T11:23:13.171Z,-2.00
2019-01-24T11:25:42.585Z,-2.10
2019-01-24T11:28:12.517Z,-2.10
2019-01-24T11:30:43.594Z,-2.10
2019-01-24T11:33:13.073Z,-2.10
2019-01-24T11:35:42.534Z,-2.10
2019-01-24T11:38:12.054Z,-2.10
2019-01-24T11:40:41.514Z,-2.00
2019-01-24T11:43:10.945Z,-2.00
2019-01-24T11:45:42.404Z,-2.10
2019-01-24T11:48:11.770Z,-2.10
2019-01-24T11:50:41.204Z,-2.10
2019-01-24T11:53:10.556Z,-2.10
2019-01-24T11:55:39.982Z,-2.10
2019-01-24T11:58:09.630Z,-2.00
2019-01-24T12:00:52.072Z,-2.00
2019-01-24T12:03:21.478Z,-2.00
2019-01-24T12:05:50.867Z,-2.10
2019-01-24T12:08:20.195Z,-2.10
2019-01-24T12:10:49.558Z,-2.00
2019-01-24T12:13:18.956Z,-2.00
2019-01-24T12:15:48.365Z,-2.00
2019-01-24T12:18:19.206Z,-2.00
2019-01-24T12:20:48.622Z,-1.90
2019-01-24T12:23:18.122Z,-1.90
2019-01-24T12:25:47.538Z,-2.00
2019-01-24T12:28:16.924Z,-1.90
2019-01-24T12:30:46.326Z,-1.90
2019-01-24T12:33:15.790Z,-1.90
2019-01-24T12:35:45.218Z,-1.90
2019-01-24T12:38:14.715Z,-1.80
2019-01-24T12:40:44.074Z,-1.80
2019-01-24T12:43:13.448Z,-1.90
2019-01-24T12:45:42.842Z,-1.90
2019-01-24T12:48:12.306Z,-1.90
2019-01-24T12:50:41.708Z,-1.90
2019-01-24T12:53:11.166Z,-1.90
2019-01-24T12:55:40.549Z,-1.90
2019-01-24T12:58:10.026Z,-1.90
2019-01-24T13:00:40.054Z,-1.80
2019-01-24T13:03:09.663Z,-1.80
2019-01-24T13:05:39.253Z,-1.80
2019-01-24T13:08:08.877Z,-1.80
2019-01-24T13:10:38.359Z,-1.80
2019-01-24T13:13:07.844Z,-1.80
2019-01-24T13:15:37.282Z,-1.70
2019-01-24T13:18:07.012Z,-1.80
2019-01-24T13:20:36.540Z,-1.80
2019-01-24T13:23:06.065Z,-1.80
2019-01-24T13:25:35.841Z,-1.80
2019-01-24T13:28:06.390Z,-1.80
2019-01-24T13:30:36.619Z,-1.80
2019-01-24T13:33:07.110Z,-1.80
2019-01-24T13:35:36.727Z,-1.80
2019-01-24T13:38:07.082Z,-1.80
2019-01-24T13:40:36.498Z,-1.80
2019-01-24T13:43:06.596Z,-1.80
2019-01-24T13:45:41.682Z,-1.80
2019-01-24T13:48:10.982Z,-1.70
2019-01-24T13:50:40.353Z,-1.70
2019-01-24T13:53:09.938Z,-1.70
2019-01-24T13:55:39.546Z,-1.70
2019-01-24T13:58:10.054Z,-1.70
2019-01-24T14:00:41.127Z,-1.70
2019-01-24T14:04:03.720Z,-1.70
2019-01-24T14:06:33.183Z,-1.70
2019-01-24T14:09:02.607Z,-1.80
2019-01-24T14:11:32.103Z,-1.70
2019-01-24T14:14:01.530Z,-1.80
2019-01-24T14:16:30.918Z,-1.70
2019-01-24T14:19:00.341Z,-1.70
2019-01-24T14:21:29.822Z,-1.70
2019-01-24T14:23:59.220Z,-1.70
2019-01-24T14:26:28.607Z,-1.70
2019-01-24T14:28:57.988Z,-1.70
2019-01-24T14:31:27.472Z,-1.60
2019-01-24T14:33:56.865Z,-1.70
2019-01-24T14:36:26.551Z,-1.60
2019-01-24T14:38:55.881Z,-1.70
2019-01-24T14:41:25.350Z,-1.60
2019-01-24T14:43:54.750Z,-1.60
2019-01-24T14:46:24.150Z,-1.60
2019-01-24T14:48:53.526Z,-1.60
2019-01-24T14:51:22.918Z,-1.60
2019-01-24T14:53:52.454Z,-1.60
2019-01-24T14:56:21.783Z,-1.60
2019-01-24T14:58:52.053Z,-1.60
2019-01-24T15:01:24.893Z,-1.60
2019-01-24T15:03:55.157Z,-1.60
2019-01-24T15:06:24.500Z,-1.60
2019-01-24T15:08:53.879Z,-1.70
2019-01-24T15:11:23.223Z,-1.70
2019-01-24T15:13:52.704Z,-1.70
2019-01-24T15:16:22.152Z,-1.70
2019-01-24T15:18:51.606Z,-1.70
2019-01-24T15:21:20.970Z,-1.70
2019-01-24T15:23:50.549Z,-1.70
2019-01-24T15:26:19.924Z,-1.70
2019-01-24T15:28:49.777Z,-1.70
2019-01-24T15:31:19.202Z,-1.70
2019-01-24T15:33:48.569Z,-1.70
2019-01-24T15:36:17.908Z,-1.80
2019-01-24T15:38:47.300Z,-1.80
2019-01-24T15:41:16.728Z,-1.80
2019-01-24T15:43:46.218Z,-1.80
2019-01-24T15:46:15.520Z,-1.80
2019-01-24T15:48:44.899Z,-1.80
2019-01-24T15:51:14.376Z,-1.80
2019-01-24T15:53:43.840Z,-1.80
2019-01-24T15:56:13.313Z,-1.80
2019-01-24T15:58:42.767Z,-1.80
2019-01-24T16:01:12.180Z,-1.80
2019-01-24T16:03:41.580Z,-1.80
2019-01-24T16:06:10.958Z,-1.80
2019-01-24T16:08:40.361Z,-1.90
2019-01-24T16:11:09.832Z,-1.90
2019-01-24T16:13:39.156Z,-1.90
2019-01-24T16:16:08.531Z,-1.90
2019-01-24T16:18:37.873Z,-1.90
2019-01-24T16:21:07.257Z,-1.90
2019-01-24T16:23:36.646Z,-1.90
2019-01-24T16:26:06.124Z,-1.90
2019-01-24T16:28:35.480Z,-1.90
2019-01-24T16:31:05.092Z,-1.90
2019-01-24T16:33:35.107Z,-1.90
2019-01-24T16:36:04.866Z,-1.90
2019-01-24T16:38:34.285Z,-1.90
2019-01-24T16:41:03.729Z,-1.90
2019-01-24T16:43:33.155Z,-1.90
2019-01-24T16:46:02.928Z,-1.90
2019-01-24T16:48:32.335Z,-1.90
2019-01-24T16:51:02.565Z,-1.90
2019-01-24T16:53:32.002Z,-2.00
2019-01-24T16:56:03.196Z,-2.00
2019-01-24T16:58:32.556Z,-2.00
2019-01-24T17:01:22.367Z,-2.00
2019-01-24T17:03:51.694Z,-2.00
2019-01-24T17:06:21.090Z,-2.00
2019-01-24T17:08:51.138Z,-2.00
2019-01-24T17:11:20.577Z,-2.00
2019-01-24T17:13:49.986Z,-2.00
2019-01-24T17:16:19.416Z,-2.00
2019-01-24T17:18:48.763Z,-2.00
2019-01-24T17:21:18.147Z,-2.00
2019-01-24T17:23:47.558Z,-2.00
2019-01-24T17:26:16.956Z,-2.00
2019-01-24T17:28:46.303Z,-2.00
2019-01-24T17:31:15.783Z,-2.00
2019-01-24T17:33:45.247Z,-2.00
2019-01-24T17:36:14.704Z,-2.00
2019-01-24T17:38:44.098Z,-2.00
2019-01-24T17:41:13.480Z,-2.00
2019-01-24T17:43:42.832Z,-2.00
2019-01-24T17:46:12.246Z,-2.00
2019-01-24T17:48:41.600Z,-2.00
2019-01-24T17:51:10.988Z,-2.00
2019-01-24T17:53:40.312Z,-2.00
2019-01-24T17:56:09.686Z,-2.00
2019-01-24T17:58:39.276Z,-2.00
2019-01-24T18:01:08.968Z,-2.00
2019-01-24T18:03:38.346Z,-1.90
2019-01-24T18:06:08.484Z,-1.90
2019-01-24T18:08:38.408Z,-1.90
2019-01-24T18:11:07.843Z,-1.90
2019-01-24T18:13:37.696Z,-2.00
2019-01-24T18:16:07.347Z,-2.00
2019-01-24T18:18:37.919Z,-2.00
2019-01-24T18:21:08.203Z,-2.00
2019-01-24T18:23:38.121Z,-2.00
2019-01-24T18:26:09.601Z,-2.00
2019-01-24T18:28:39.436Z,-2.00
2019-01-24T18:31:09.498Z,-2.10
2019-01-24T18:33:41.702Z,-2.00
2019-01-24T18:36:11.948Z,-2.00
2019-01-24T18:38:41.559Z,-2.00
2019-01-24T18:41:11.185Z,-2.00
2019-01-24T18:43:40.833Z,-2.10
2019-01-24T18:46:10.474Z,-2.10
2019-01-24T18:48:40.339Z,-2.10
2019-01-24T18:51:09.892Z,-2.10
2019-01-24T18:53:39.464Z,-2.10
2019-01-24T18:56:08.985Z,-2.00
2019-01-24T18:58:38.523Z,-2.00
2019-01-24T19:01:08.193Z,-2.10
2019-01-24T19:03:40.403Z,-2.10
2019-01-24T19:06:10.191Z,-2.10
2019-01-24T19:08:45.872Z,-2.10
2019-01-24T19:11:10.944Z,-2.10
2019-01-24T19:13:40.616Z,-2.10
2019-01-24T19:16:10.191Z,-2.10
2019-01-24T19:18:40.901Z,-2.10
2019-01-24T19:21:10.452Z,-2.10
2019-01-24T19:23:40.963Z,-2.10
2019-01-24T19:26:10.620Z,-2.10
2019-01-24T19:28:45.216Z,-2.10
2019-01-24T19:31:15.189Z,-2.10
2019-01-24T19:33:44.874Z,-2.10
2019-01-24T19:36:17.609Z,-2.10
2019-01-24T19:38:53.046Z,-2.10
2019-01-24T19:41:26.135Z,-2.10
2019-01-24T19:43:58.090Z,-2.10
2019-01-24T19:46:27.603Z,-2.10
2019-01-24T19:48:59.135Z,-2.10
2019-01-24T19:51:28.559Z,-2.20
2019-01-24T19:53:58.205Z,-2.20
2019-01-24T19:56:27.674Z,-2.20
2019-01-24T19:58:57.551Z,-2.20
2019-01-24T20:01:27.171Z,-2.20
2019-01-24T20:03:56.788Z,-2.20
2019-01-24T20:06:26.269Z,-2.20
2019-01-24T20:09:00.141Z,-2.20
2019-01-24T20:11:30.073Z,-2.20
2019-01-24T20:13:59.766Z,-2.20
2019-01-24T20:16:29.361Z,-2.30
2019-01-24T20:18:58.901Z,-2.30
2019-01-24T20:21:29.498Z,-2.30
2019-01-24T20:24:00.065Z,-2.30
2019-01-24T20:26:30.827Z,-2.30
2019-01-24T20:29:00.568Z,-2.40
2019-01-24T20:31:31.432Z,-2.30
2019-01-24T20:34:03.427Z,-2.30
2019-01-24T20:36:33.020Z,-2.30
2019-01-24T20:39:07.329Z,-2.30
2019-01-24T20:41:34.878Z,-2.40
2019-01-24T20:44:04.568Z,-2.30
2019-01-24T20:46:34.158Z,-2.30
2019-01-24T20:49:03.739Z,-2.30
2019-01-24T20:51:33.362Z,-2.30
2019-01-24T20:54:04.679Z,-2.30
2019-01-24T20:56:34.155Z,-2.30
2019-01-24T20:59:03.783Z,-2.30
2019-01-24T21:01:33.242Z,-2.30
2019-01-24T21:04:03.737Z,-2.30
2019-01-24T21:06:33.283Z,-2.30
2019-01-24T21:09:03.459Z,-2.30
2019-01-24T21:11:32.950Z,-2.30
2019-01-24T21:14:03.079Z,-2.30
2019-01-24T21:16:32.582Z,-2.30
2019-01-24T21:19:02.083Z,-2.30
2019-01-24T21:21:31.677Z,-2.30
2019-01-24T21:24:01.183Z,-2.30
2019-01-24T21:26:30.662Z,-2.30
2019-01-24T21:29:00.244Z,-2.30
2019-01-24T21:31:29.754Z,-2.30
2019-01-24T21:34:00.451Z,-2.30
2019-01-24T21:36:29.994Z,-2.30
2019-01-24T21:38:59.520Z,-2.30
2019-01-24T21:41:29.047Z,-2.30
2019-01-24T21:44:02.338Z,-2.30
2019-01-24T21:46:36.272Z,-2.30
2019-01-24T21:49:06.280Z,-2.30
2019-01-24T21:51:35.927Z,-2.30
2019-01-24T21:54:07.084Z,-2.20
2019-01-24T21:56:36.668Z,-2.30
2019-01-24T21:59:06.179Z,-2.30
2019-01-24T22:01:35.826Z,-2.20
2019-01-24T22:04:05.490Z,-2.20
2019-01-24T22:06:36.400Z,-2.20
2019-01-24T22:09:09.291Z,-2.20
2019-01-24T22:11:38.886Z,-2.20
2019-01-24T22:14:08.730Z,-2.30
2019-01-24T22:16:38.280Z,-2.30
2019-01-24T22:19:07.743Z,-2.30
2019-01-24T22:21:37.329Z,-2.20
2019-01-24T22:24:06.786Z,-2.20
2019-01-24T22:26:36.378Z,-2.30
2019-01-24T22:29:06.413Z,-2.30
2019-01-24T22:31:36.036Z,-2.20
2019-01-24T22:34:07.011Z,-2.20
2019-01-24T22:36:36.597Z,-2.20
2019-01-24T22:39:09.502Z,-2.20
2019-01-24T22:41:39.022Z,-2.20
2019-01-24T22:44:08.520Z,-2.20
2019-01-24T22:46:38.046Z,-2.20
2019-01-24T22:49:07.551Z,-2.20
2019-01-24T22:51:39.096Z,-2.20
2019-01-24T22:54:08.254Z,-2.20
2019-01-24T22:56:37.802Z,-2.20
2019-01-24T22:59:07.317Z,-2.20
2019-01-24T23:01:59.998Z,-2.20
2019-01-24T23:04:29.490Z,-2.20
2019-01-24T23:06:58.988Z,-2.20
2019-01-24T23:09:28.583Z,-2.20
2019-01-24T23:11:58.096Z,-2.20
2019-01-24T23:14:27.590Z,-2.20
2019-01-24T23:16:57.101Z,-2.10
2019-01-24T23:19:26.614Z,-2.20
2019-01-24T23:21:56.156Z,-2.20
2019-01-24T23:24:25.710Z,-2.20
2019-01-24T23:26:55.268Z,-2.20
2019-01-24T23:29:25.270Z,-2.10
2019-01-24T23:31:54.910Z,-2.10
2019-01-24T23:34:25.598Z,-2.10
2019-01-24T23:36:55.072Z,-2.10
2019-01-24T23:39:24.525Z,-2.10
2019-01-24T23:41:54.068Z,-2.10
2019-01-24T23:44:23.606Z,-2.10
2019-01-24T23:46:53.008Z,-2.10
2019-01-24T23:49:24.547Z,-2.20
2019-01-24T23:51:55.100Z,-2.10
2019-01-24T23:54:24.525Z,-2.10
2019-01-24T23:56:54.119Z,-2.10
2019-01-24T23:59:23.523Z,-2.10
